createdAt,value
2022-09-18T00:01:50.497Z,12.26
2022-09-18T00:06:44.974Z,12.27
2022-09-18T00:11:40.008Z,12.29
2022-09-18T00:16:31.856Z,12.29
2022-09-18T00:21:25.322Z,12.30
2022-09-18T00:26:18.539Z,12.29
2022-09-18T00:31:22.107Z,12.32
2022-09-18T00:36:16.507Z,12.30
2022-09-18T00:41:17.849Z,12.29
2022-09-18T00:46:41.903Z,12.31
2022-09-18T00:51:36.198Z,12.30
2022-09-18T00:56:28.338Z,12.28
2022-09-18T01:01:20.066Z,12.27
2022-09-18T01:06:22.985Z,12.22
2022-09-18T01:11:56.284Z,12.19
2022-09-18T01:16:57.704Z,12.11
2022-09-18T01:22:18.782Z,12.05
2022-09-18T01:27:18.658Z,12.00
2022-09-18T01:32:19.476Z,11.99
2022-09-18T01:37:36.829Z,11.97
2022-09-18T01:42:31.120Z,11.91
2022-09-18T01:47:28.998Z,11.90
2022-09-18T01:52:26.801Z,11.88
2022-09-18T01:57:25.590Z,11.83
2022-09-18T02:02:49.876Z,11.86
2022-09-18T02:07:52.014Z,11.87
2022-09-18T02:12:45.189Z,11.82
2022-09-18T02:17:53.440Z,11.80
2022-09-18T02:22:46.711Z,11.82
2022-09-18T02:27:40.373Z,11.75
2022-09-18T02:32:32.477Z,11.73
2022-09-18T02:37:28.940Z,11.71
2022-09-18T02:42:27.219Z,11.70
2022-09-18T02:47:46.284Z,11.69
2022-09-18T02:52:50.101Z,11.63
2022-09-18T02:57:49.493Z,11.59
2022-09-18T03:02:41.236Z,11.56
2022-09-18T03:07:33.009Z,11.50
2022-09-18T03:12:24.703Z,11.48
2022-09-18T03:17:16.509Z,11.43
2022-09-18T03:22:08.197Z,11.34
2022-09-18T03:26:59.867Z,11.29
2022-09-18T03:31:51.624Z,11.24
2022-09-18T03:36:43.272Z,11.18
2022-09-18T03:41:34.944Z,11.12
2022-09-18T03:46:26.565Z,11.08
2022-09-18T03:51:19.688Z,10.99
2022-09-18T03:56:12.161Z,10.93
2022-09-18T04:01:03.981Z,10.88
2022-09-18T04:05:55.617Z,10.78
2022-09-18T04:10:48.322Z,10.75
2022-09-18T04:15:40.048Z,10.68
2022-09-18T04:20:31.790Z,10.66
2022-09-18T04:25:23.500Z,10.61
2022-09-18T04:30:15.178Z,10.60
2022-09-18T04:35:07.522Z,10.62
2022-09-18T04:39:59.165Z,10.62
2022-09-18T04:44:51.021Z,10.63
2022-09-18T04:49:42.669Z,10.66
2022-09-18T04:54:34.610Z,10.68
2022-09-18T04:59:26.235Z,10.67
2022-09-18T05:04:17.837Z,10.67
2022-09-18T05:09:09.559Z,10.67
2022-09-18T05:14:01.253Z,10.72
2022-09-18T05:18:53.214Z,10.75
2022-09-18T05:23:45.433Z,10.79
2022-09-18T05:28:37.582Z,10.84
2022-09-18T05:33:29.532Z,10.90
2022-09-18T05:38:21.178Z,10.93
2022-09-18T05:43:12.825Z,10.97
2022-09-18T05:48:06.438Z,10.97
2022-09-18T05:52:58.015Z,10.99
2022-09-18T05:57:53.857Z,11.02
2022-09-18T06:02:55.952Z,11.09
2022-09-18T06:07:47.814Z,11.10
2022-09-18T06:12:39.519Z,11.11
2022-09-18T06:17:31.119Z,11.11
2022-09-18T06:22:22.855Z,11.11
2022-09-18T06:27:14.481Z,11.15
2022-09-18T06:32:06.239Z,11.15
2022-09-18T06:36:57.874Z,11.16
2022-09-18T06:41:49.872Z,11.14
2022-09-18T06:46:41.655Z,11.13
2022-09-18T06:51:33.250Z,11.20
2022-09-18T06:56:24.977Z,11.27
2022-09-18T07:01:16.622Z,11.34
2022-09-18T07:06:10.341Z,11.38
2022-09-18T07:11:02.441Z,11.36
2022-09-18T07:15:54.168Z,11.38
2022-09-18T07:20:45.870Z,11.49
2022-09-18T07:25:37.533Z,11.62
2022-09-18T07:30:29.190Z,11.84
2022-09-18T07:35:20.934Z,11.99
2022-09-18T07:40:12.714Z,12.08
2022-09-18T07:45:06.005Z,12.17
2022-09-18T07:49:57.660Z,12.28
2022-09-18T07:54:49.340Z,12.36
2022-09-18T07:59:40.994Z,12.43
2022-09-18T08:04:32.665Z,12.50
2022-09-18T08:09:24.317Z,12.57
2022-09-18T08:14:16.637Z,12.61
2022-09-18T08:19:08.732Z,12.70
2022-09-18T08:24:00.614Z,12.78
2022-09-18T08:28:52.529Z,12.81
2022-09-18T08:33:44.264Z,12.87
2022-09-18T08:38:36.218Z,12.94
2022-09-18T08:43:47.541Z,13.01
2022-09-18T08:48:45.552Z,13.12
2022-09-18T08:53:40.444Z,13.29
2022-09-18T08:58:49.180Z,13.58
2022-09-18T09:03:53.214Z,13.89
2022-09-18T09:09:12.537Z,14.12
2022-09-18T09:14:55.483Z,14.38
2022-09-18T09:20:21.449Z,14.55
2022-09-18T09:25:50.782Z,14.65
2022-09-18T09:30:48.945Z,14.66
2022-09-18T09:35:45.498Z,14.90
2022-09-18T09:40:45.485Z,15.48
2022-09-18T09:45:49.754Z,16.13
2022-09-18T09:51:12.009Z,16.63
2022-09-18T09:56:09.752Z,17.12
2022-09-18T10:01:10.697Z,17.57
2022-09-18T10:06:15.590Z,18.04
2022-09-18T10:11:11.388Z,18.63
2022-09-18T10:16:38.979Z,18.64
2022-09-18T10:21:35.209Z,18.67
2022-09-18T10:26:35.236Z,18.82
2022-09-18T10:31:49.375Z,18.98
2022-09-18T10:36:43.371Z,19.29
2022-09-18T10:41:38.913Z,19.38
2022-09-18T10:46:33.745Z,19.22
2022-09-18T10:51:26.886Z,19.23
2022-09-18T10:56:20.485Z,19.13
2022-09-18T11:01:14.003Z,18.67
2022-09-18T11:06:15.704Z,18.21
2022-09-18T11:11:11.319Z,17.77
2022-09-18T11:16:03.829Z,17.40
2022-09-18T11:20:57.894Z,17.19
2022-09-18T11:25:50.064Z,17.15
2022-09-18T11:30:41.794Z,17.41
2022-09-18T11:35:33.662Z,17.75
2022-09-18T11:40:30.860Z,17.79
2022-09-18T11:45:47.392Z,17.98
2022-09-18T11:50:39.579Z,18.40
2022-09-18T11:55:44.842Z,18.60
2022-09-18T12:00:50.895Z,18.48
2022-09-18T12:05:51.592Z,18.59
2022-09-18T12:10:59.190Z,18.84
2022-09-18T12:15:59.150Z,18.58
2022-09-18T12:20:57.882Z,18.34
2022-09-18T12:26:17.004Z,18.58
2022-09-18T12:31:19.659Z,18.85
2022-09-18T12:36:29.583Z,19.12
2022-09-18T12:41:32.925Z,19.20
2022-09-18T12:46:59.862Z,19.27
2022-09-18T12:51:54.925Z,19.52
2022-09-18T12:56:55.709Z,19.41
2022-09-18T13:02:06.238Z,19.07
2022-09-18T13:07:21.910Z,18.77
2022-09-18T13:12:20.934Z,18.51
2022-09-18T13:17:18.584Z,18.30
2022-09-18T13:22:15.922Z,18.00
2022-09-18T13:27:13.259Z,17.77
2022-09-18T13:32:05.042Z,17.60
2022-09-18T13:37:06.423Z,17.51
2022-09-18T13:41:59.803Z,17.43
2022-09-18T13:46:55.115Z,17.38
2022-09-18T13:51:47.305Z,17.42
2022-09-18T13:57:04.065Z,17.44
2022-09-18T14:01:55.947Z,17.37
2022-09-18T14:06:47.748Z,17.27
2022-09-18T14:11:39.393Z,17.13
2022-09-18T14:16:38.862Z,17.02
2022-09-18T14:21:40.292Z,17.06
2022-09-18T14:26:38.524Z,17.11
2022-09-18T14:31:38.087Z,17.11
2022-09-18T14:36:47.638Z,17.07
2022-09-18T14:41:39.316Z,17.05
2022-09-18T14:46:31.880Z,17.04
2022-09-18T14:51:26.954Z,17.13
2022-09-18T14:56:27.310Z,17.19
2022-09-18T15:01:26.835Z,17.21
2022-09-18T15:06:24.278Z,17.07
2022-09-18T15:11:18.279Z,16.98
2022-09-18T15:16:39.389Z,16.88
2022-09-18T15:21:33.828Z,16.69
2022-09-18T15:26:32.769Z,16.50
2022-09-18T15:31:29.908Z,16.38
2022-09-18T15:36:31.627Z,16.26
2022-09-18T15:41:32.342Z,16.28
2022-09-18T15:46:29.626Z,16.27
2022-09-18T15:51:36.061Z,16.29
2022-09-18T15:56:28.579Z,16.28
2022-09-18T16:01:24.196Z,16.31
2022-09-18T16:06:26.496Z,16.36
2022-09-18T16:11:44.728Z,16.35
2022-09-18T16:16:36.460Z,16.32
2022-09-18T16:21:30.417Z,16.35
2022-09-18T16:26:34.467Z,16.33
2022-09-18T16:31:28.702Z,16.26
2022-09-18T16:36:39.032Z,16.24
2022-09-18T16:41:31.565Z,16.18
2022-09-18T16:46:31.377Z,16.09
2022-09-18T16:51:23.166Z,16.04
2022-09-18T16:56:20.231Z,15.98
2022-09-18T17:01:11.959Z,15.97
2022-09-18T17:06:03.772Z,15.99
2022-09-18T17:10:55.443Z,15.97
2022-09-18T17:15:47.245Z,15.93
2022-09-18T17:20:38.920Z,15.84
2022-09-18T17:25:30.636Z,15.79
2022-09-18T17:30:22.929Z,15.73
2022-09-18T17:35:16.289Z,15.63
2022-09-18T17:40:09.517Z,15.57
2022-09-18T17:45:01.265Z,15.53
2022-09-18T17:49:52.930Z,15.48
2022-09-18T17:54:44.636Z,15.40
2022-09-18T17:59:36.838Z,15.33
2022-09-18T18:04:31.117Z,15.25
2022-09-18T18:09:22.944Z,15.17
2022-09-18T18:14:14.899Z,15.05
2022-09-18T18:19:11.939Z,14.96
2022-09-18T18:24:11.032Z,14.90
2022-09-18T18:29:02.883Z,14.83
2022-09-18T18:33:55.751Z,14.71
2022-09-18T18:38:50.493Z,14.60
2022-09-18T18:43:42.620Z,14.54
2022-09-18T18:48:36.865Z,14.53
2022-09-18T18:53:29.159Z,14.53
2022-09-18T18:58:20.751Z,14.52
2022-09-18T19:03:12.411Z,14.47
2022-09-18T19:08:04.337Z,14.42
2022-09-18T19:12:57.323Z,14.36
2022-09-18T19:17:50.297Z,14.31
2022-09-18T19:22:42.033Z,14.23
2022-09-18T19:27:33.587Z,14.20
2022-09-18T19:32:25.685Z,14.18
2022-09-18T19:37:18.419Z,14.15
2022-09-18T19:42:14.938Z,14.15
2022-09-18T19:47:19.144Z,14.15
2022-09-18T19:52:20.475Z,14.13
2022-09-18T19:57:12.452Z,14.13
2022-09-18T20:02:04.260Z,14.15
2022-09-18T20:06:55.929Z,14.19
2022-09-18T20:11:48.470Z,14.18
2022-09-18T20:16:40.159Z,14.18
2022-09-18T20:21:32.176Z,14.21
2022-09-18T20:26:25.010Z,14.21
2022-09-18T20:31:17.456Z,14.21
2022-09-18T20:36:11.528Z,14.17
2022-09-18T20:41:15.187Z,14.15
2022-09-18T20:46:11.524Z,14.16
2022-09-18T20:51:09.144Z,14.12
2022-09-18T20:56:02.991Z,14.08
2022-09-18T21:00:54.621Z,14.01
2022-09-18T21:05:46.485Z,13.93
2022-09-18T21:10:46.720Z,13.88
2022-09-18T21:15:38.923Z,13.78
2022-09-18T21:20:31.561Z,13.72
2022-09-18T21:25:24.725Z,13.66
2022-09-18T21:30:16.395Z,13.60
2022-09-18T21:35:08.649Z,13.54
2022-09-18T21:40:00.470Z,13.52
2022-09-18T21:44:52.125Z,13.48
2022-09-18T21:49:44.048Z,13.46
2022-09-18T21:54:35.737Z,13.48
2022-09-18T21:59:30.679Z,13.49
2022-09-18T22:04:29.232Z,13.52
2022-09-18T22:09:33.282Z,13.50
2022-09-18T22:14:32.170Z,13.45
2022-09-18T22:19:24.183Z,13.41
2022-09-18T22:24:19.467Z,13.44
2022-09-18T22:29:20.172Z,13.45
2022-09-18T22:34:12.991Z,13.46
2022-09-18T22:39:04.792Z,13.47
2022-09-18T22:43:57.873Z,13.43
2022-09-18T22:48:49.840Z,13.42
2022-09-18T22:53:47.124Z,13.46
2022-09-18T22:58:41.391Z,13.47
2022-09-18T23:03:33.917Z,13.48
2022-09-18T23:08:25.567Z,13.50
2022-09-18T23:13:17.470Z,13.42
2022-09-18T23:18:09.136Z,13.44
2022-09-18T23:23:00.822Z,13.48
2022-09-18T23:27:53.103Z,13.50
2022-09-18T23:32:48.523Z,13.48
2022-09-18T23:37:40.140Z,13.42
2022-09-18T23:42:31.848Z,13.39
2022-09-18T23:47:23.635Z,13.38
2022-09-18T23:52:15.380Z,13.41
2022-09-18T23:57:07.097Z,13.40
